sensor_id;sensor_type;location;lat;lon;timestamp;P1;durP1;ratioP1;P2;durP2;ratioP2
24335;SDS011;33098;52.400;16.880;2022-10-14T00:01:13;54.60;;;33.40;;
24335;SDS011;33098;52.400;16.880;2022-10-14T00:03:57;53.10;;;33.10;;
24335;SDS011;33098;52.400;16.880;2022-10-14T00:06:28;54.40;;;34.60;;
24335;SDS011;33098;52.400;16.880;2022-10-14T00:09:00;51.20;;;33.40;;
24335;SDS011;33098;52.400;16.880;2022-10-14T00:11:31;51.30;;;32.30;;
24335;SDS011;33098;52.400;16.880;2022-10-14T00:14:01;55.70;;;34.00;;
24335;SDS011;33098;52.400;16.880;2022-10-14T00:16:32;54.40;;;33.60;;
24335;SDS011;33098;52.400;16.880;2022-10-14T00:19:01;54.20;;;33.30;;
24335;SDS011;33098;52.400;16.880;2022-10-14T00:21:29;49.50;;;32.90;;
24335;SDS011;33098;52.400;16.880;2022-10-14T00:23:57;54.40;;;33.90;;
24335;SDS011;33098;52.400;16.880;2022-10-14T00:26:26;51.60;;;33.30;;
24335;SDS011;33098;52.400;16.880;2022-10-14T00:28:58;56.90;;;33.30;;
24335;SDS011;33098;52.400;16.880;2022-10-14T00:31:33;52.00;;;33.40;;
24335;SDS011;33098;52.400;16.880;2022-10-14T00:34:00;50.70;;;32.70;;
24335;SDS011;33098;52.400;16.880;2022-10-14T00:36:27;51.60;;;33.50;;
24335;SDS011;33098;52.400;16.880;2022-10-14T00:38:55;52.40;;;32.10;;
24335;SDS011;33098;52.400;16.880;2022-10-14T00:41:23;51.90;;;32.50;;
24335;SDS011;33098;52.400;16.880;2022-10-14T00:46:22;56.20;;;33.80;;
24335;SDS011;33098;52.400;16.880;2022-10-14T00:48:54;52.50;;;32.70;;
24335;SDS011;33098;52.400;16.880;2022-10-14T00:51:22;54.90;;;33.10;;
24335;SDS011;33098;52.400;16.880;2022-10-14T00:53:53;51.90;;;33.00;;
24335;SDS011;33098;52.400;16.880;2022-10-14T00:56:24;54.70;;;32.70;;
24335;SDS011;33098;52.400;16.880;2022-10-14T00:58:54;52.90;;;33.50;;
24335;SDS011;33098;52.400;16.880;2022-10-14T01:01:22;54.00;;;32.40;;
24335;SDS011;33098;52.400;16.880;2022-10-14T01:03:49;48.50;;;31.70;;
24335;SDS011;33098;52.400;16.880;2022-10-14T01:06:39;50.30;;;32.80;;
24335;SDS011;33098;52.400;16.880;2022-10-14T01:15:31;50.60;;;31.20;;
24335;SDS011;33098;52.400;16.880;2022-10-14T01:19:04;54.30;;;32.60;;
24335;SDS011;33098;52.400;16.880;2022-10-14T01:21:36;50.30;;;31.60;;
24335;SDS011;33098;52.400;16.880;2022-10-14T01:24:20;46.70;;;31.70;;
24335;SDS011;33098;52.400;16.880;2022-10-14T01:30:11;51.90;;;31.50;;
24335;SDS011;33098;52.400;16.880;2022-10-14T01:32:54;48.60;;;31.50;;
24335;SDS011;33098;52.400;16.880;2022-10-14T01:38:30;48.30;;;31.40;;
24335;SDS011;33098;52.400;16.880;2022-10-14T01:43:53;48.20;;;31.20;;
24335;SDS011;33098;52.400;16.880;2022-10-14T01:48:53;51.50;;;30.20;;
24335;SDS011;33098;52.400;16.880;2022-10-14T01:51:35;45.40;;;29.80;;
24335;SDS011;33098;52.400;16.880;2022-10-14T01:54:08;45.30;;;29.20;;
24335;SDS011;33098;52.400;16.880;2022-10-14T01:56:38;47.70;;;29.50;;
24335;SDS011;33098;52.400;16.880;2022-10-14T01:59:08;47.40;;;29.80;;
24335;SDS011;33098;52.400;16.880;2022-10-14T02:01:37;47.40;;;30.50;;
24335;SDS011;33098;52.400;16.880;2022-10-14T02:04:12;46.00;;;29.80;;
24335;SDS011;33098;52.400;16.880;2022-10-14T02:06:57;45.00;;;29.60;;
24335;SDS011;33098;52.400;16.880;2022-10-14T02:09:34;49.50;;;30.00;;
24335;SDS011;33098;52.400;16.880;2022-10-14T02:12:26;48.90;;;29.50;;
24335;SDS011;33098;52.400;16.880;2022-10-14T02:15:15;47.80;;;28.70;;
24335;SDS011;33098;52.400;16.880;2022-10-14T02:17:53;48.20;;;28.80;;
24335;SDS011;33098;52.400;16.880;2022-10-14T02:20:28;44.40;;;29.30;;
24335;SDS011;33098;52.400;16.880;2022-10-14T02:23:07;41.70;;;28.90;;
24335;SDS011;33098;52.400;16.880;2022-10-14T02:25:39;46.50;;;29.30;;
24335;SDS011;33098;52.400;16.880;2022-10-14T02:28:09;42.90;;;28.90;;
24335;SDS011;33098;52.400;16.880;2022-10-14T02:30:42;47.00;;;28.60;;
24335;SDS011;33098;52.400;16.880;2022-10-14T02:33:18;44.40;;;28.50;;
24335;SDS011;33098;52.400;16.880;2022-10-14T02:35:48;44.70;;;28.70;;
24335;SDS011;33098;52.400;16.880;2022-10-14T02:38:17;43.70;;;29.00;;
24335;SDS011;33098;52.400;16.880;2022-10-14T02:40:48;43.50;;;28.00;;
24335;SDS011;33098;52.400;16.880;2022-10-14T02:43:16;42.70;;;28.30;;
24335;SDS011;33098;52.400;16.880;2022-10-14T02:45:43;39.80;;;28.10;;
24335;SDS011;33098;52.400;16.880;2022-10-14T02:48:16;47.00;;;27.80;;
24335;SDS011;33098;52.400;16.880;2022-10-14T02:50:42;47.50;;;29.20;;
24335;SDS011;33098;52.400;16.880;2022-10-14T02:53:10;44.90;;;28.70;;
24335;SDS011;33098;52.400;16.880;2022-10-14T02:55:44;44.00;;;28.10;;
24335;SDS011;33098;52.400;16.880;2022-10-14T02:58:14;46.60;;;28.30;;
24335;SDS011;33098;52.400;16.880;2022-10-14T03:00:44;41.40;;;27.40;;
24335;SDS011;33098;52.400;16.880;2022-10-14T03:03:14;42.50;;;28.00;;
24335;SDS011;33098;52.400;16.880;2022-10-14T03:05:41;41.60;;;28.10;;
24335;SDS011;33098;52.400;16.880;2022-10-14T03:08:11;41.70;;;28.40;;
24335;SDS011;33098;52.400;16.880;2022-10-14T03:10:38;45.90;;;28.80;;
24335;SDS011;33098;52.400;16.880;2022-10-14T03:13:06;45.40;;;29.30;;
24335;SDS011;33098;52.400;16.880;2022-10-14T03:18:03;46.40;;;28.00;;
24335;SDS011;33098;52.400;16.880;2022-10-14T03:20:41;49.50;;;29.10;;
24335;SDS011;33098;52.400;16.880;2022-10-14T03:23:13;45.70;;;28.80;;
24335;SDS011;33098;52.400;16.880;2022-10-14T03:25:43;44.20;;;28.60;;
24335;SDS011;33098;52.400;16.880;2022-10-14T03:28:21;46.30;;;27.70;;
24335;SDS011;33098;52.400;16.880;2022-10-14T03:30:52;43.90;;;27.80;;
24335;SDS011;33098;52.400;16.880;2022-10-14T03:33:34;41.80;;;27.90;;
24335;SDS011;33098;52.400;16.880;2022-10-14T03:36:07;46.00;;;28.10;;
24335;SDS011;33098;52.400;16.880;2022-10-14T03:38:45;44.50;;;28.80;;
24335;SDS011;33098;52.400;16.880;2022-10-14T03:41:19;43.40;;;28.80;;
24335;SDS011;33098;52.400;16.880;2022-10-14T03:43:49;44.40;;;28.80;;
24335;SDS011;33098;52.400;16.880;2022-10-14T03:46:16;38.90;;;27.60;;
24335;SDS011;33098;52.400;16.880;2022-10-14T03:48:51;42.80;;;27.70;;
24335;SDS011;33098;52.400;16.880;2022-10-14T03:51:18;40.80;;;27.10;;
24335;SDS011;33098;52.400;16.880;2022-10-14T03:53:46;40.90;;;27.70;;
24335;SDS011;33098;52.400;16.880;2022-10-14T03:56:14;45.20;;;27.90;;
24335;SDS011;33098;52.400;16.880;2022-10-14T03:58:41;41.90;;;28.10;;
24335;SDS011;33098;52.400;16.880;2022-10-14T04:03:53;39.60;;;27.40;;
24335;SDS011;33098;52.400;16.880;2022-10-14T04:06:20;42.30;;;29.10;;
24335;SDS011;33098;52.400;16.880;2022-10-14T04:08:50;41.60;;;27.80;;
24335;SDS011;33098;52.400;16.880;2022-10-14T04:11:27;43.80;;;28.20;;
24335;SDS011;33098;52.400;16.880;2022-10-14T04:13:59;42.20;;;28.80;;
24335;SDS011;33098;52.400;16.880;2022-10-14T04:16:28;44.70;;;28.60;;
24335;SDS011;33098;52.400;16.880;2022-10-14T04:18:59;40.20;;;27.60;;
24335;SDS011;33098;52.400;16.880;2022-10-14T04:21:26;46.00;;;28.40;;
24335;SDS011;33098;52.400;16.880;2022-10-14T04:23:52;46.70;;;28.70;;
24335;SDS011;33098;52.400;16.880;2022-10-14T04:26:32;38.20;;;27.20;;
24335;SDS011;33098;52.400;16.880;2022-10-14T04:28:59;44.80;;;26.90;;
24335;SDS011;33098;52.400;16.880;2022-10-14T04:31:34;42.00;;;26.50;;
24335;SDS011;33098;52.400;16.880;2022-10-14T04:34:02;43.20;;;27.20;;
24335;SDS011;33098;52.400;16.880;2022-10-14T04:36:35;42.10;;;26.90;;
24335;SDS011;33098;52.400;16.880;2022-10-14T04:39:03;42.70;;;27.50;;
24335;SDS011;33098;52.400;16.880;2022-10-14T04:41:33;41.40;;;26.30;;
24335;SDS011;33098;52.400;16.880;2022-10-14T04:44:00;35.90;;;26.40;;
24335;SDS011;33098;52.400;16.880;2022-10-14T04:46:33;37.00;;;26.30;;
24335;SDS011;33098;52.400;16.880;2022-10-14T04:49:00;41.80;;;26.90;;
24335;SDS011;33098;52.400;16.880;2022-10-14T04:54:15;40.90;;;26.50;;
24335;SDS011;33098;52.400;16.880;2022-10-14T04:56:49;41.30;;;27.80;;
24335;SDS011;33098;52.400;16.880;2022-10-14T04:59:19;41.30;;;28.10;;
24335;SDS011;33098;52.400;16.880;2022-10-14T05:02:12;42.40;;;27.50;;
24335;SDS011;33098;52.400;16.880;2022-10-14T05:04:44;44.00;;;28.20;;
24335;SDS011;33098;52.400;16.880;2022-10-14T05:07:11;41.30;;;28.30;;
24335;SDS011;33098;52.400;16.880;2022-10-14T05:09:38;47.10;;;28.40;;
24335;SDS011;33098;52.400;16.880;2022-10-14T05:12:08;47.20;;;28.50;;
24335;SDS011;33098;52.400;16.880;2022-10-14T05:14:43;45.30;;;28.90;;
24335;SDS011;33098;52.400;16.880;2022-10-14T05:17:17;38.10;;;28.00;;
24335;SDS011;33098;52.400;16.880;2022-10-14T05:19:44;42.80;;;29.10;;
24335;SDS011;33098;52.400;16.880;2022-10-14T05:22:11;43.50;;;28.80;;
24335;SDS011;33098;52.400;16.880;2022-10-14T05:24:44;42.30;;;29.40;;
24335;SDS011;33098;52.400;16.880;2022-10-14T05:27:13;43.50;;;29.70;;
24335;SDS011;33098;52.400;16.880;2022-10-14T05:29:40;47.80;;;29.40;;
24335;SDS011;33098;52.400;16.880;2022-10-14T05:32:07;41.60;;;29.30;;
24335;SDS011;33098;52.400;16.880;2022-10-14T05:34:45;42.10;;;29.60;;
24335;SDS011;33098;52.400;16.880;2022-10-14T05:37:17;42.60;;;29.50;;
24335;SDS011;33098;52.400;16.880;2022-10-14T05:39:47;43.70;;;29.80;;
24335;SDS011;33098;52.400;16.880;2022-10-14T05:42:18;46.00;;;29.00;;
24335;SDS011;33098;52.400;16.880;2022-10-14T05:44:45;41.90;;;28.60;;
24335;SDS011;33098;52.400;16.880;2022-10-14T05:47:13;45.20;;;29.00;;
24335;SDS011;33098;52.400;16.880;2022-10-14T05:49:41;44.80;;;28.70;;
24335;SDS011;33098;52.400;16.880;2022-10-14T05:52:08;46.90;;;29.00;;
24335;SDS011;33098;52.400;16.880;2022-10-14T05:54:35;44.20;;;27.60;;
24335;SDS011;33098;52.400;16.880;2022-10-14T05:57:02;45.60;;;28.70;;
24335;SDS011;33098;52.400;16.880;2022-10-14T05:59:32;41.90;;;29.10;;
24335;SDS011;33098;52.400;16.880;2022-10-14T06:02:00;43.30;;;28.40;;
24335;SDS011;33098;52.400;16.880;2022-10-14T06:04:28;46.40;;;29.10;;
24335;SDS011;33098;52.400;16.880;2022-10-14T06:06:55;42.80;;;28.10;;
24335;SDS011;33098;52.400;16.880;2022-10-14T06:09:22;42.60;;;29.60;;
24335;SDS011;33098;52.400;16.880;2022-10-14T06:11:48;44.50;;;28.50;;
24335;SDS011;33098;52.400;16.880;2022-10-14T06:14:15;45.80;;;29.90;;
24335;SDS011;33098;52.400;16.880;2022-10-14T06:16:41;43.50;;;29.20;;
24335;SDS011;33098;52.400;16.880;2022-10-14T06:19:08;50.50;;;30.60;;
24335;SDS011;33098;52.400;16.880;2022-10-14T06:21:35;47.90;;;32.10;;
24335;SDS011;33098;52.400;16.880;2022-10-14T06:24:01;49.90;;;32.20;;
24335;SDS011;33098;52.400;16.880;2022-10-14T06:26:29;53.00;;;33.60;;
24335;SDS011;33098;52.400;16.880;2022-10-14T06:28:55;53.80;;;34.60;;
24335;SDS011;33098;52.400;16.880;2022-10-14T06:31:22;51.60;;;33.80;;
24335;SDS011;33098;52.400;16.880;2022-10-14T06:33:49;50.90;;;34.00;;
24335;SDS011;33098;52.400;16.880;2022-10-14T06:36:15;54.60;;;34.50;;
24335;SDS011;33098;52.400;16.880;2022-10-14T06:38:42;56.50;;;34.80;;
24335;SDS011;33098;52.400;16.880;2022-10-14T06:41:11;47.90;;;33.20;;
24335;SDS011;33098;52.400;16.880;2022-10-14T06:43:38;57.50;;;36.70;;
24335;SDS011;33098;52.400;16.880;2022-10-14T06:46:05;52.10;;;35.00;;
24335;SDS011;33098;52.400;16.880;2022-10-14T06:48:32;54.50;;;34.20;;
24335;SDS011;33098;52.400;16.880;2022-10-14T06:50:59;53.40;;;34.90;;
24335;SDS011;33098;52.400;16.880;2022-10-14T06:53:27;51.60;;;33.30;;
24335;SDS011;33098;52.400;16.880;2022-10-14T06:56:02;49.10;;;33.40;;
24335;SDS011;33098;52.400;16.880;2022-10-14T06:58:31;47.10;;;33.60;;
24335;SDS011;33098;52.400;16.880;2022-10-14T07:01:02;47.80;;;31.70;;
24335;SDS011;33098;52.400;16.880;2022-10-14T07:03:32;49.10;;;31.20;;
24335;SDS011;33098;52.400;16.880;2022-10-14T07:06:02;44.80;;;30.70;;
24335;SDS011;33098;52.400;16.880;2022-10-14T07:08:30;47.40;;;29.80;;
24335;SDS011;33098;52.400;16.880;2022-10-14T07:10:57;45.90;;;30.70;;
24335;SDS011;33098;52.400;16.880;2022-10-14T07:13:25;44.00;;;30.10;;
24335;SDS011;33098;52.400;16.880;2022-10-14T07:15:54;51.00;;;32.40;;
24335;SDS011;33098;52.400;16.880;2022-10-14T07:18:21;50.20;;;32.70;;
24335;SDS011;33098;52.400;16.880;2022-10-14T07:20:48;45.70;;;31.70;;
24335;SDS011;33098;52.400;16.880;2022-10-14T07:23:15;52.00;;;32.10;;
24335;SDS011;33098;52.400;16.880;2022-10-14T07:25:42;45.10;;;30.70;;
24335;SDS011;33098;52.400;16.880;2022-10-14T07:28:08;49.70;;;32.00;;
24335;SDS011;33098;52.400;16.880;2022-10-14T07:30:35;47.50;;;32.00;;
24335;SDS011;33098;52.400;16.880;2022-10-14T07:33:05;59.40;;;33.30;;
24335;SDS011;33098;52.400;16.880;2022-10-14T07:35:32;64.50;;;32.50;;
24335;SDS011;33098;52.400;16.880;2022-10-14T07:37:59;64.20;;;34.90;;
24335;SDS011;33098;52.400;16.880;2022-10-14T07:40:28;68.10;;;34.50;;
24335;SDS011;33098;52.400;16.880;2022-10-14T07:42:55;65.50;;;36.20;;
24335;SDS011;33098;52.400;16.880;2022-10-14T07:45:25;57.80;;;34.10;;
24335;SDS011;33098;52.400;16.880;2022-10-14T07:47:52;53.80;;;33.40;;
24335;SDS011;33098;52.400;16.880;2022-10-14T07:50:19;50.30;;;33.40;;
24335;SDS011;33098;52.400;16.880;2022-10-14T07:52:45;54.00;;;33.80;;
24335;SDS011;33098;52.400;16.880;2022-10-14T07:55:12;54.80;;;31.70;;
24335;SDS011;33098;52.400;16.880;2022-10-14T07:57:38;49.70;;;31.10;;
24335;SDS011;33098;52.400;16.880;2022-10-14T08:00:05;51.20;;;30.70;;
24335;SDS011;33098;52.400;16.880;2022-10-14T08:02:39;46.00;;;29.20;;
24335;SDS011;33098;52.400;16.880;2022-10-14T08:05:05;42.90;;;27.80;;
24335;SDS011;33098;52.400;16.880;2022-10-14T08:07:32;42.20;;;29.40;;
24335;SDS011;33098;52.400;16.880;2022-10-14T08:09:59;41.40;;;27.40;;
24335;SDS011;33098;52.400;16.880;2022-10-14T08:12:25;45.40;;;28.50;;
24335;SDS011;33098;52.400;16.880;2022-10-14T08:14:54;40.30;;;27.50;;
24335;SDS011;33098;52.400;16.880;2022-10-14T08:17:25;42.70;;;26.60;;
24335;SDS011;33098;52.400;16.880;2022-10-14T08:19:51;41.40;;;26.60;;
24335;SDS011;33098;52.400;16.880;2022-10-14T08:22:18;46.90;;;27.60;;
24335;SDS011;33098;52.400;16.880;2022-10-14T08:24:45;43.00;;;26.20;;
24335;SDS011;33098;52.400;16.880;2022-10-14T08:27:12;50.50;;;29.40;;
24335;SDS011;33098;52.400;16.880;2022-10-14T08:29:38;38.20;;;23.90;;
24335;SDS011;33098;52.400;16.880;2022-10-14T08:32:05;36.00;;;23.00;;
24335;SDS011;33098;52.400;16.880;2022-10-14T08:34:32;40.70;;;24.50;;
24335;SDS011;33098;52.400;16.880;2022-10-14T08:37:00;37.50;;;23.70;;
24335;SDS011;33098;52.400;16.880;2022-10-14T08:39:27;36.00;;;22.90;;
24335;SDS011;33098;52.400;16.880;2022-10-14T08:44:56;33.60;;;21.90;;
24335;SDS011;33098;52.400;16.880;2022-10-14T08:47:31;30.90;;;21.90;;
24335;SDS011;33098;52.400;16.880;2022-10-14T08:50:06;33.20;;;21.80;;
24335;SDS011;33098;52.400;16.880;2022-10-14T08:52:53;32.80;;;21.00;;
24335;SDS011;33098;52.400;16.880;2022-10-14T08:55:34;28.20;;;20.20;;
24335;SDS011;33098;52.400;16.880;2022-10-14T08:58:12;31.20;;;20.60;;
24335;SDS011;33098;52.400;16.880;2022-10-14T09:00:44;28.70;;;20.00;;
24335;SDS011;33098;52.400;16.880;2022-10-14T09:03:17;29.00;;;20.80;;
24335;SDS011;33098;52.400;16.880;2022-10-14T09:06:00;27.10;;;20.60;;
24335;SDS011;33098;52.400;16.880;2022-10-14T09:08:34;28.90;;;19.70;;
24335;SDS011;33098;52.400;16.880;2022-10-14T09:11:25;28.00;;;19.80;;
24335;SDS011;33098;52.400;16.880;2022-10-14T09:13:54;28.90;;;19.10;;
24335;SDS011;33098;52.400;16.880;2022-10-14T09:16:25;25.70;;;18.60;;
24335;SDS011;33098;52.400;16.880;2022-10-14T09:21:36;27.20;;;18.10;;
24335;SDS011;33098;52.400;16.880;2022-10-14T09:26:43;29.00;;;20.00;;
24335;SDS011;33098;52.400;16.880;2022-10-14T09:29:21;34.00;;;19.90;;
24335;SDS011;33098;52.400;16.880;2022-10-14T09:31:55;29.40;;;18.80;;
24335;SDS011;33098;52.400;16.880;2022-10-14T09:34:28;30.50;;;19.10;;
24335;SDS011;33098;52.400;16.880;2022-10-14T09:36:59;27.80;;;18.00;;
24335;SDS011;33098;52.400;16.880;2022-10-14T09:39:50;26.40;;;18.20;;
24335;SDS011;33098;52.400;16.880;2022-10-14T09:42:19;25.80;;;17.50;;
24335;SDS011;33098;52.400;16.880;2022-10-14T09:45:03;24.90;;;17.20;;
24335;SDS011;33098;52.400;16.880;2022-10-14T09:47:55;29.00;;;17.10;;
24335;SDS011;33098;52.400;16.880;2022-10-14T09:53:02;22.50;;;15.30;;
24335;SDS011;33098;52.400;16.880;2022-10-14T09:55:45;22.30;;;15.50;;
24335;SDS011;33098;52.400;16.880;2022-10-14T09:59:11;25.40;;;16.00;;
24335;SDS011;33098;52.400;16.880;2022-10-14T10:01:18;20.10;;;14.00;;
24335;SDS011;33098;52.400;16.880;2022-10-14T10:03:47;23.80;;;15.10;;
24335;SDS011;33098;52.400;16.880;2022-10-14T10:06:17;20.70;;;14.30;;
24335;SDS011;33098;52.400;16.880;2022-10-14T10:11:26;21.30;;;14.60;;
24335;SDS011;33098;52.400;16.880;2022-10-14T10:13:53;23.10;;;14.70;;
24335;SDS011;33098;52.400;16.880;2022-10-14T10:16:27;21.60;;;14.20;;
24335;SDS011;33098;52.400;16.880;2022-10-14T10:24:45;21.00;;;13.90;;
24335;SDS011;33098;52.400;16.880;2022-10-14T10:27:28;20.00;;;13.20;;
24335;SDS011;33098;52.400;16.880;2022-10-14T10:32:46;19.10;;;12.80;;
24335;SDS011;33098;52.400;16.880;2022-10-14T10:43:19;21.20;;;14.20;;
24335;SDS011;33098;52.400;16.880;2022-10-14T10:54:49;22.90;;;13.80;;
24335;SDS011;33098;52.400;16.880;2022-10-14T10:57:37;19.00;;;13.30;;
24335;SDS011;33098;52.400;16.880;2022-10-14T11:00:14;20.20;;;13.60;;
24335;SDS011;33098;52.400;16.880;2022-10-14T11:02:51;22.00;;;12.70;;
24335;SDS011;33098;52.400;16.880;2022-10-14T11:11:23;18.50;;;11.30;;
24335;SDS011;33098;52.400;16.880;2022-10-14T11:25:24;18.30;;;12.30;;
24335;SDS011;33098;52.400;16.880;2022-10-14T11:28:26;21.50;;;11.70;;
24335;SDS011;33098;52.400;16.880;2022-10-14T11:31:32;19.20;;;11.60;;
24335;SDS011;33098;52.400;16.880;2022-10-14T11:34:10;18.20;;;11.60;;
24335;SDS011;33098;52.400;16.880;2022-10-14T11:48:09;25.70;;;18.20;;
24335;SDS011;33098;52.400;16.880;2022-10-14T11:50:54;27.60;;;18.20;;
24335;SDS011;33098;52.400;16.880;2022-10-14T11:53:34;26.70;;;19.00;;
24335;SDS011;33098;52.400;16.880;2022-10-14T11:56:27;26.00;;;19.20;;
24335;SDS011;33098;52.400;16.880;2022-10-14T11:58:58;24.10;;;18.20;;
24335;SDS011;33098;52.400;16.880;2022-10-14T12:01:29;26.30;;;18.00;;
24335;SDS011;33098;52.400;16.880;2022-10-14T12:04:04;25.50;;;17.40;;
24335;SDS011;33098;52.400;16.880;2022-10-14T12:06:43;28.80;;;19.20;;
24335;SDS011;33098;52.400;16.880;2022-10-14T12:11:50;26.10;;;18.00;;
24335;SDS011;33098;52.400;16.880;2022-10-14T12:14:37;24.80;;;17.80;;
24335;SDS011;33098;52.400;16.880;2022-10-14T12:17:51;27.70;;;18.50;;
24335;SDS011;33098;52.400;16.880;2022-10-14T12:20:15;32.40;;;19.40;;
24335;SDS011;33098;52.400;16.880;2022-10-14T12:23:01;29.50;;;19.70;;
24335;SDS011;33098;52.400;16.880;2022-10-14T12:28:03;28.40;;;18.50;;
24335;SDS011;33098;52.400;16.880;2022-10-14T12:30:40;28.60;;;19.10;;
24335;SDS011;33098;52.400;16.880;2022-10-14T12:33:11;29.40;;;18.30;;
24335;SDS011;33098;52.400;16.880;2022-10-14T12:35:55;30.40;;;18.40;;
24335;SDS011;33098;52.400;16.880;2022-10-14T12:38:28;29.40;;;18.30;;
24335;SDS011;33098;52.400;16.880;2022-10-14T12:44:02;26.60;;;17.30;;
24335;SDS011;33098;52.400;16.880;2022-10-14T12:46:30;24.10;;;16.30;;
24335;SDS011;33098;52.400;16.880;2022-10-14T12:48:57;24.60;;;15.60;;
24335;SDS011;33098;52.400;16.880;2022-10-14T12:51:25;22.90;;;15.50;;
24335;SDS011;33098;52.400;16.880;2022-10-14T12:54:04;24.90;;;15.00;;
24335;SDS011;33098;52.400;16.880;2022-10-14T12:56:59;24.90;;;14.70;;
24335;SDS011;33098;52.400;16.880;2022-10-14T12:59:29;20.00;;;14.20;;
24335;SDS011;33098;52.400;16.880;2022-10-14T13:07:36;19.00;;;13.90;;
24335;SDS011;33098;52.400;16.880;2022-10-14T13:10:39;25.10;;;15.50;;
24335;SDS011;33098;52.400;16.880;2022-10-14T13:16:08;30.50;;;15.80;;
24335;SDS011;33098;52.400;16.880;2022-10-14T13:18:59;22.20;;;16.50;;
24335;SDS011;33098;52.400;16.880;2022-10-14T13:21:54;26.00;;;15.10;;
24335;SDS011;33098;52.400;16.880;2022-10-14T13:38:15;22.00;;;15.40;;
24335;SDS011;33098;52.400;16.880;2022-10-14T13:40:55;25.30;;;16.10;;
24335;SDS011;33098;52.400;16.880;2022-10-14T13:43:39;26.50;;;16.10;;
24335;SDS011;33098;52.400;16.880;2022-10-14T13:46:14;24.20;;;15.60;;
24335;SDS011;33098;52.400;16.880;2022-10-14T13:48:55;25.20;;;16.90;;
24335;SDS011;33098;52.400;16.880;2022-10-14T13:51:49;28.60;;;17.60;;
24335;SDS011;33098;52.400;16.880;2022-10-14T13:54:20;25.50;;;16.90;;
24335;SDS011;33098;52.400;16.880;2022-10-14T13:57:03;25.90;;;16.90;;
24335;SDS011;33098;52.400;16.880;2022-10-14T13:59:38;26.80;;;17.40;;
24335;SDS011;33098;52.400;16.880;2022-10-14T14:02:11;26.20;;;18.10;;
24335;SDS011;33098;52.400;16.880;2022-10-14T14:04:47;30.10;;;18.90;;
24335;SDS011;33098;52.400;16.880;2022-10-14T14:07:18;25.60;;;17.90;;
24335;SDS011;33098;52.400;16.880;2022-10-14T14:09:50;28.20;;;17.80;;
24335;SDS011;33098;52.400;16.880;2022-10-14T14:12:20;25.40;;;17.80;;
24335;SDS011;33098;52.400;16.880;2022-10-14T14:14:47;25.20;;;17.20;;
24335;SDS011;33098;52.400;16.880;2022-10-14T14:17:22;25.20;;;18.00;;
24335;SDS011;33098;52.400;16.880;2022-10-14T14:19:50;30.30;;;18.20;;
24335;SDS011;33098;52.400;16.880;2022-10-14T14:22:22;26.40;;;17.50;;
24335;SDS011;33098;52.400;16.880;2022-10-14T14:27:48;31.90;;;19.90;;
24335;SDS011;33098;52.400;16.880;2022-10-14T14:30:36;28.50;;;19.40;;
24335;SDS011;33098;52.400;16.880;2022-10-14T14:33:06;32.30;;;21.10;;
24335;SDS011;33098;52.400;16.880;2022-10-14T14:35:41;30.60;;;20.60;;
24335;SDS011;33098;52.400;16.880;2022-10-14T14:38:31;28.60;;;21.30;;
24335;SDS011;33098;52.400;16.880;2022-10-14T14:41:01;31.10;;;21.20;;
24335;SDS011;33098;52.400;16.880;2022-10-14T14:43:30;33.90;;;21.60;;
24335;SDS011;33098;52.400;16.880;2022-10-14T14:46:00;30.50;;;21.60;;
24335;SDS011;33098;52.400;16.880;2022-10-14T14:48:28;30.90;;;21.70;;
24335;SDS011;33098;52.400;16.880;2022-10-14T14:50:56;34.30;;;21.60;;
24335;SDS011;33098;52.400;16.880;2022-10-14T14:53:24;31.20;;;21.10;;
24335;SDS011;33098;52.400;16.880;2022-10-14T15:01:28;36.80;;;21.50;;
24335;SDS011;33098;52.400;16.880;2022-10-14T15:06:25;33.10;;;21.80;;
24335;SDS011;33098;52.400;16.880;2022-10-14T15:08:55;31.40;;;21.60;;
24335;SDS011;33098;52.400;16.880;2022-10-14T15:11:44;33.10;;;22.00;;
24335;SDS011;33098;52.400;16.880;2022-10-14T15:14:26;35.80;;;23.00;;
24335;SDS011;33098;52.400;16.880;2022-10-14T15:17:29;32.90;;;21.10;;
24335;SDS011;33098;52.400;16.880;2022-10-14T15:20:43;33.00;;;21.10;;
24335;SDS011;33098;52.400;16.880;2022-10-14T15:22:59;30.00;;;20.30;;
24335;SDS011;33098;52.400;16.880;2022-10-14T15:25:30;34.30;;;22.00;;
24335;SDS011;33098;52.400;16.880;2022-10-14T15:27:58;32.20;;;19.80;;
24335;SDS011;33098;52.400;16.880;2022-10-14T15:33:13;28.40;;;19.40;;
24335;SDS011;33098;52.400;16.880;2022-10-14T15:35:40;30.30;;;20.00;;
24335;SDS011;33098;52.400;16.880;2022-10-14T15:38:13;30.20;;;20.60;;
24335;SDS011;33098;52.400;16.880;2022-10-14T15:40:44;33.30;;;20.00;;
24335;SDS011;33098;52.400;16.880;2022-10-14T15:43:14;35.10;;;21.90;;
24335;SDS011;33098;52.400;16.880;2022-10-14T15:45:51;29.60;;;20.30;;
24335;SDS011;33098;52.400;16.880;2022-10-14T15:48:38;32.20;;;21.50;;
24335;SDS011;33098;52.400;16.880;2022-10-14T15:51:08;32.80;;;21.30;;
24335;SDS011;33098;52.400;16.880;2022-10-14T15:53:40;33.50;;;21.10;;
24335;SDS011;33098;52.400;16.880;2022-10-14T15:56:07;32.10;;;21.30;;
24335;SDS011;33098;52.400;16.880;2022-10-14T15:58:35;31.10;;;19.40;;
24335;SDS011;33098;52.400;16.880;2022-10-14T16:01:04;29.50;;;19.30;;
24335;SDS011;33098;52.400;16.880;2022-10-14T16:03:31;33.20;;;20.90;;
24335;SDS011;33098;52.400;16.880;2022-10-14T16:06:01;30.10;;;20.90;;
24335;SDS011;33098;52.400;16.880;2022-10-14T16:08:28;33.30;;;20.10;;
24335;SDS011;33098;52.400;16.880;2022-10-14T16:10:54;30.10;;;20.70;;
24335;SDS011;33098;52.400;16.880;2022-10-14T16:13:22;31.30;;;20.30;;
24335;SDS011;33098;52.400;16.880;2022-10-14T16:18:24;32.40;;;21.50;;
24335;SDS011;33098;52.400;16.880;2022-10-14T16:20:56;36.20;;;22.40;;
24335;SDS011;33098;52.400;16.880;2022-10-14T16:23:23;28.90;;;20.10;;
24335;SDS011;33098;52.400;16.880;2022-10-14T16:25:50;33.20;;;23.30;;
24335;SDS011;33098;52.400;16.880;2022-10-14T16:28:18;37.10;;;23.60;;
24335;SDS011;33098;52.400;16.880;2022-10-14T16:30:47;39.80;;;25.10;;
24335;SDS011;33098;52.400;16.880;2022-10-14T16:33:15;44.90;;;27.10;;
24335;SDS011;33098;52.400;16.880;2022-10-14T16:35:45;42.00;;;27.20;;
24335;SDS011;33098;52.400;16.880;2022-10-14T16:38:19;38.50;;;26.00;;
24335;SDS011;33098;52.400;16.880;2022-10-14T16:40:53;42.10;;;28.60;;
24335;SDS011;33098;52.400;16.880;2022-10-14T16:43:21;45.40;;;30.30;;
24335;SDS011;33098;52.400;16.880;2022-10-14T16:45:48;46.20;;;30.70;;
24335;SDS011;33098;52.400;16.880;2022-10-14T16:48:14;42.70;;;29.20;;
24335;SDS011;33098;52.400;16.880;2022-10-14T16:50:51;45.60;;;29.30;;
24335;SDS011;33098;52.400;16.880;2022-10-14T16:53:19;40.00;;;27.60;;
24335;SDS011;33098;52.400;16.880;2022-10-14T16:56:12;42.50;;;26.50;;
24335;SDS011;33098;52.400;16.880;2022-10-14T16:58:59;43.40;;;26.20;;
24335;SDS011;33098;52.400;16.880;2022-10-14T17:01:27;40.70;;;26.60;;
24335;SDS011;33098;52.400;16.880;2022-10-14T17:03:54;41.30;;;28.10;;